createdAt,value
2018-10-06T00:02:25.250Z,12.87
2018-10-06T00:07:40.606Z,7.73
2018-10-06T00:10:17.425Z,9.37
2018-10-06T00:12:56.091Z,9.07
2018-10-06T00:18:12.245Z,7.90
2018-10-06T00:26:04.384Z,10.33
2018-10-06T00:28:44.390Z,10.40
2018-10-06T00:36:37.920Z,9.27
2018-10-06T00:41:54.192Z,10.27
2018-10-06T00:44:30.000Z,7.73
2018-10-06T00:47:08.757Z,9.13
2018-10-06T00:49:48.352Z,8.80
2018-10-06T00:52:24.316Z,9.67
2018-10-06T00:55:04.561Z,9.37
2018-10-06T00:57:40.818Z,8.70
2018-10-06T01:00:18.136Z,9.63
2018-10-06T01:08:12.350Z,8.33
2018-10-06T01:10:47.791Z,9.03
2018-10-06T01:20:24.874Z,10.93
2018-10-06T01:23:04.851Z,10.17
2018-10-06T01:25:43.400Z,11.03
2018-10-06T01:33:38.297Z,9.53
2018-10-06T01:36:15.731Z,9.53
2018-10-06T01:51:07.560Z,10.00
2018-10-06T01:56:25.546Z,9.17
2018-10-06T01:59:04.192Z,9.63
2018-10-06T02:09:44.020Z,11.13
2018-10-06T02:12:21.939Z,9.73
2018-10-06T02:15:01.601Z,8.80
2018-10-06T02:20:14.295Z,9.77
2018-10-06T02:25:27.467Z,10.53
2018-10-06T02:28:06.804Z,10.53
2018-10-06T02:36:01.395Z,9.50
2018-10-06T02:38:41.839Z,10.30
2018-10-06T02:41:20.912Z,8.87
2018-10-06T02:49:17.252Z,10.77
2018-10-06T02:54:34.639Z,10.27
2018-10-06T02:59:51.901Z,8.37
2018-10-06T03:10:53.895Z,11.43
2018-10-06T03:13:33.380Z,8.60
2018-10-06T03:16:10.222Z,8.77
2018-10-06T03:21:23.230Z,9.67
2018-10-06T03:24:03.314Z,9.10
2018-10-06T03:26:42.823Z,9.07
2018-10-06T03:29:23.184Z,9.43
2018-10-06T03:37:16.040Z,9.53
2018-10-06T03:42:28.511Z,9.73
2018-10-06T03:45:08.155Z,8.50
2018-10-06T03:50:23.010Z,8.83
2018-10-06T03:53:00.367Z,10.97
2018-10-06T03:55:40.192Z,12.80
2018-10-06T04:00:56.664Z,9.30
2018-10-06T04:03:36.489Z,9.83
2018-10-06T04:06:16.479Z,11.10
2018-10-06T04:08:52.908Z,8.97
2018-10-06T04:11:31.232Z,9.37
2018-10-06T04:16:47.592Z,11.33
2018-10-06T04:22:09.410Z,10.30
2018-10-06T04:24:47.346Z,11.97
2018-10-06T04:30:09.956Z,10.73
2018-10-06T04:32:46.896Z,10.63
2018-10-06T04:35:23.608Z,11.87
2018-10-06T04:38:00.446Z,12.70
2018-10-06T04:43:17.430Z,9.33
2018-10-06T04:48:34.547Z,8.97
2018-10-06T04:51:11.196Z,13.93
2018-10-06T04:53:50.718Z,8.77
2018-10-06T04:56:28.030Z,8.67
2018-10-06T04:59:04.752Z,11.80
2018-10-06T05:04:15.105Z,10.57
2018-10-06T05:06:55.761Z,9.27
2018-10-06T05:09:35.353Z,11.40
2018-10-06T05:15:00.603Z,9.43
2018-10-06T05:17:38.248Z,9.23
2018-10-06T05:23:00.712Z,9.20
2018-10-06T05:25:37.472Z,8.73
2018-10-06T05:30:50.601Z,8.50
2018-10-06T05:33:30.573Z,9.47
2018-10-06T05:36:12.923Z,10.83
2018-10-06T05:39:52.849Z,9.67
2018-10-06T05:42:30.900Z,8.67
2018-10-06T05:47:53.618Z,8.07
2018-10-06T05:50:32.711Z,8.80
2018-10-06T05:55:45.113Z,8.40
2018-10-06T05:58:19.790Z,8.27
2018-10-06T06:01:17.826Z,8.93
2018-10-06T06:06:40.784Z,9.03
2018-10-06T06:09:16.878Z,7.70
2018-10-06T06:11:54.519Z,8.50
2018-10-06T06:14:30.349Z,9.43
2018-10-06T06:17:09.014Z,8.27
2018-10-06T06:19:46.731Z,9.00
2018-10-06T06:22:24.782Z,8.30
2018-10-06T06:27:42.121Z,11.83
2018-10-06T06:30:28.510Z,11.77
2018-10-06T06:33:11.924Z,11.10
2018-10-06T06:35:54.165Z,10.30
2018-10-06T06:38:35.737Z,8.57
2018-10-06T06:44:08.540Z,10.50
2018-10-06T06:50:00.958Z,11.67
2018-10-06T06:52:38.823Z,10.70
2018-10-06T07:02:02.267Z,9.73
2018-10-06T07:04:41.321Z,9.87
2018-10-06T07:07:17.166Z,10.10
2018-10-06T07:12:34.999Z,10.63
2018-10-06T07:17:52.258Z,8.90
2018-10-06T07:20:32.174Z,10.33
2018-10-06T07:23:10.893Z,9.73
2018-10-06T07:25:46.959Z,9.23
2018-10-06T07:30:57.514Z,8.57
2018-10-06T07:36:12.191Z,8.10
2018-10-06T07:38:48.032Z,9.07
2018-10-06T07:44:03.496Z,8.33
2018-10-06T07:46:38.831Z,7.33
2018-10-06T07:49:14.382Z,9.63
2018-10-06T07:51:48.988Z,7.77
2018-10-06T07:54:23.604Z,7.70
2018-10-06T07:56:58.754Z,7.73
2018-10-06T07:59:33.354Z,7.73
2018-10-06T08:02:12.360Z,7.20
2018-10-06T08:04:49.003Z,6.63
2018-10-06T08:07:24.647Z,7.80
2018-10-06T08:10:38.448Z,7.90
2018-10-06T08:13:33.433Z,7.27
2018-10-06T08:16:34.804Z,7.93
2018-10-06T08:19:22.274Z,7.73
2018-10-06T08:25:18.324Z,7.50
2018-10-06T09:15:20.541Z,7.47
2018-10-06T09:17:57.161Z,7.60
2018-10-06T09:23:14.312Z,7.10
2018-10-06T09:25:53.368Z,7.13
2018-10-06T09:31:06.716Z,6.93
2018-10-06T09:33:46.869Z,7.20
2018-10-06T09:36:25.690Z,8.13
2018-10-06T09:39:01.961Z,8.47
2018-10-06T09:41:42.321Z,7.03
2018-10-06T09:49:39.910Z,7.20
2018-10-06T09:52:14.667Z,7.50
2018-10-06T09:54:49.275Z,7.80
2018-10-06T09:57:24.032Z,7.63
2018-10-06T09:59:58.737Z,8.20
2018-10-06T10:02:38.425Z,7.97
2018-10-06T10:05:19.176Z,7.23
2018-10-06T10:07:53.847Z,7.03
2018-10-06T10:10:28.408Z,9.57
2018-10-06T10:13:08.119Z,8.97
2018-10-06T10:18:21.593Z,7.83
2018-10-06T10:34:05.847Z,7.70
2018-10-06T10:39:18.413Z,7.23
2018-10-06T10:44:32.370Z,7.27
2018-10-06T10:47:12.868Z,7.80
2018-10-06T10:49:52.350Z,9.30
2018-10-06T10:52:28.134Z,7.47
2018-10-06T10:57:40.491Z,7.07
2018-10-06T11:02:58.327Z,7.07
2018-10-06T11:08:15.352Z,6.00
2018-10-06T11:10:53.229Z,6.13
2018-10-06T11:16:10.404Z,6.03
2018-10-06T11:18:47.300Z,6.10
2018-10-06T11:21:26.912Z,5.40
2018-10-06T11:24:06.648Z,5.90
2018-10-06T11:29:19.342Z,6.50
2018-10-06T11:37:11.795Z,5.87
2018-10-06T11:39:47.238Z,5.53
2018-10-06T11:42:23.491Z,8.43
2018-10-06T11:44:59.334Z,6.08
2018-10-06T11:55:24.992Z,5.78
2018-10-06T11:58:04.592Z,5.67
2018-10-06T12:03:17.020Z,5.53
2018-10-06T12:05:53.187Z,5.92
2018-10-06T12:08:27.907Z,5.58
2018-10-06T12:11:02.693Z,5.65
2018-10-06T12:13:37.858Z,5.62
2018-10-06T12:18:47.444Z,5.80
2018-10-06T12:21:23.363Z,5.58
2018-10-06T12:24:02.917Z,5.35
2018-10-06T12:26:37.721Z,5.85
2018-10-06T12:29:12.492Z,5.85
2018-10-06T12:31:50.498Z,5.20
2018-10-06T12:34:25.302Z,6.28
2018-10-06T12:37:00.652Z,6.12
2018-10-06T12:39:35.428Z,5.15
2018-10-06T12:42:12.802Z,5.28
2018-10-06T12:44:47.457Z,5.35
2018-10-06T12:47:22.203Z,6.45
2018-10-06T12:49:57.044Z,5.78
2018-10-06T12:52:31.901Z,5.42
2018-10-06T12:55:11.014Z,5.12
2018-10-06T12:57:45.840Z,6.72
2018-10-06T13:00:25.191Z,5.12
2018-10-06T13:05:37.508Z,5.17
2018-10-06T13:10:51.572Z,7.60
2018-10-06T13:13:29.257Z,5.47
2018-10-06T13:16:04.201Z,7.12
2018-10-06T13:18:38.883Z,5.95
2018-10-06T13:21:13.664Z,6.90
2018-10-06T13:23:48.600Z,6.72
2018-10-06T13:26:24.445Z,10.78
2018-10-06T13:28:59.922Z,6.58
2018-10-06T13:31:34.775Z,4.85
2018-10-06T13:34:09.797Z,5.22
2018-10-06T13:36:45.017Z,5.53
2018-10-06T13:39:19.821Z,7.40
2018-10-06T13:41:55.657Z,6.00
2018-10-06T13:44:30.602Z,5.92
2018-10-06T13:47:07.690Z,5.03
2018-10-06T13:49:45.458Z,5.67
2018-10-06T13:52:21.715Z,5.53
2018-10-06T13:54:56.540Z,5.22
2018-10-06T13:57:32.491Z,5.20
2018-10-06T14:00:07.544Z,5.95
2018-10-06T14:05:22.171Z,5.70
2018-10-06T14:07:56.974Z,6.60
2018-10-06T14:10:31.888Z,5.62
2018-10-06T14:13:07.118Z,5.72
2018-10-06T14:15:42.027Z,6.00
2018-10-06T14:18:16.857Z,5.60
2018-10-06T14:20:51.818Z,5.50
2018-10-06T14:23:27.401Z,5.85
2018-10-06T14:28:54.735Z,6.05
2018-10-06T14:31:29.683Z,6.20
2018-10-06T14:34:04.593Z,5.15
2018-10-06T14:36:40.453Z,4.67
2018-10-06T14:39:15.334Z,5.83
2018-10-06T14:41:50.314Z,5.10
2018-10-06T14:44:28.131Z,6.47
2018-10-06T14:47:02.990Z,5.15
2018-10-06T14:49:37.823Z,7.42
2018-10-06T14:52:12.658Z,6.37
2018-10-06T14:54:47.336Z,9.73
2018-10-06T14:57:22.263Z,7.08
2018-10-06T14:59:57.422Z,6.10
2018-10-06T15:02:32.176Z,4.58
2018-10-06T15:05:08.292Z,5.28
2018-10-06T15:07:49.321Z,5.30
2018-10-06T15:10:24.278Z,6.87
2018-10-06T15:12:59.131Z,4.50
2018-10-06T15:15:34.833Z,4.73
2018-10-06T15:18:10.758Z,4.60
2018-10-06T15:20:52.831Z,4.97
2018-10-06T15:23:27.665Z,5.00
2018-10-06T15:26:02.384Z,4.97
2018-10-06T15:28:37.191Z,5.30
2018-10-06T15:31:11.882Z,5.50
2018-10-06T15:33:46.582Z,6.30
2018-10-06T15:36:21.303Z,6.30
2018-10-06T15:41:35.737Z,7.50
2018-10-06T15:44:10.549Z,5.70
2018-10-06T15:46:46.299Z,4.93
2018-10-06T15:58:08.529Z,5.23
2018-10-06T16:00:56.154Z,6.60
2018-10-06T16:03:31.675Z,6.43
2018-10-06T16:06:10.295Z,5.07
2018-10-06T16:08:45.876Z,7.67
2018-10-06T16:11:21.650Z,5.33
2018-10-06T16:13:57.733Z,10.20
2018-10-06T16:16:37.157Z,10.87
2018-10-06T16:19:15.924Z,7.13
2018-10-06T16:21:55.704Z,8.30
2018-10-06T16:24:31.174Z,11.03
2018-10-06T16:29:45.237Z,12.13
2018-10-06T16:32:21.068Z,9.17
2018-10-06T16:35:05.960Z,9.00
2018-10-06T16:37:41.020Z,11.57
2018-10-06T16:40:20.523Z,20.47
2018-10-06T16:42:55.275Z,16.30
2018-10-06T16:48:14.316Z,12.90
2018-10-06T16:50:49.046Z,11.90
2018-10-06T16:53:23.744Z,9.60
2018-10-06T16:55:59.696Z,12.03
2018-10-06T17:01:13.338Z,9.20
2018-10-06T17:06:21.595Z,9.03
2018-10-06T17:11:31.284Z,9.40
2018-10-06T17:16:40.762Z,8.93
2018-10-06T17:19:18.040Z,8.53
2018-10-06T17:21:54.982Z,7.90
2018-10-06T17:24:31.875Z,7.80
2018-10-06T17:27:08.373Z,7.97
2018-10-06T17:29:43.130Z,8.40
2018-10-06T17:32:17.909Z,8.07
2018-10-06T17:34:53.885Z,8.00
2018-10-06T17:37:28.768Z,8.23
2018-10-06T17:40:07.364Z,8.23
2018-10-06T17:45:16.113Z,8.30
2018-10-06T17:47:50.581Z,9.97
2018-10-06T17:50:25.268Z,8.57
2018-10-06T17:55:38.349Z,9.27
2018-10-06T17:58:13.129Z,9.57
2018-10-06T18:00:47.673Z,9.43
2018-10-06T18:03:22.084Z,7.83
2018-10-06T18:05:56.686Z,7.80
2018-10-06T18:08:31.275Z,8.10
2018-10-06T18:11:05.935Z,9.20
2018-10-06T18:13:40.459Z,8.97
2018-10-06T18:16:15.266Z,8.97
2018-10-06T18:18:49.739Z,8.10
2018-10-06T18:21:24.416Z,8.87
2018-10-06T18:23:58.746Z,7.40
2018-10-06T18:26:33.297Z,6.63
2018-10-06T18:29:07.906Z,7.27
2018-10-06T18:31:42.395Z,9.83
2018-10-06T18:34:16.956Z,7.17
2018-10-06T18:36:51.469Z,9.03
2018-10-06T18:39:25.851Z,7.83
2018-10-06T18:42:00.346Z,7.97
2018-10-06T18:44:34.892Z,9.77
2018-10-06T18:47:09.370Z,9.47
2018-10-06T18:49:44.800Z,9.33
2018-10-06T18:52:22.528Z,9.17
2018-10-06T18:54:57.192Z,8.70
2018-10-06T19:00:11.977Z,8.77
2018-10-06T19:02:46.691Z,10.17
2018-10-06T19:05:22.362Z,18.97
2018-10-06T19:07:58.763Z,14.67
2018-10-06T19:10:33.339Z,12.20
2018-10-06T19:13:07.936Z,12.50
2018-10-06T19:15:42.523Z,11.47
2018-10-06T19:18:17.065Z,11.83
2018-10-06T19:20:51.579Z,12.70
2018-10-06T19:23:26.055Z,12.07
2018-10-06T19:26:27.653Z,12.23
2018-10-06T19:29:03.545Z,12.07
2018-10-06T19:31:38.286Z,8.57
2018-10-06T19:34:13.668Z,10.43
2018-10-06T19:36:48.793Z,10.17
2018-10-06T19:39:23.570Z,11.67
2018-10-06T19:41:58.398Z,12.10
2018-10-06T19:44:34.115Z,12.77
2018-10-06T19:47:08.971Z,13.40
2018-10-06T19:49:43.760Z,12.60
2018-10-06T19:52:18.510Z,10.27
2018-10-06T19:54:54.745Z,8.93
2018-10-06T19:57:30.491Z,11.27
2018-10-06T20:02:44.068Z,8.57
2018-10-06T20:05:19.844Z,8.93
2018-10-06T20:07:56.056Z,8.20
2018-10-06T20:10:33.831Z,9.37
2018-10-06T20:13:09.500Z,10.00
2018-10-06T20:15:44.601Z,10.40
2018-10-06T20:18:22.742Z,10.10
2018-10-06T20:26:14.864Z,10.83
2018-10-06T20:28:52.664Z,9.23
2018-10-06T20:31:27.440Z,10.03
2018-10-06T20:34:02.942Z,9.57
2018-10-06T20:36:38.741Z,9.00
2018-10-06T20:41:52.950Z,8.93
2018-10-06T20:47:03.180Z,9.47
2018-10-06T20:49:40.620Z,10.60
2018-10-06T20:52:16.808Z,9.50
2018-10-06T20:54:52.367Z,8.40
2018-10-06T20:57:31.265Z,8.97
2018-10-06T21:05:26.158Z,8.63
2018-10-06T21:10:44.675Z,9.13
2018-10-06T21:13:20.355Z,8.90
2018-10-06T21:18:33.789Z,9.67
2018-10-06T21:23:45.639Z,8.67
2018-10-06T21:28:58.514Z,8.63
2018-10-06T21:31:36.656Z,9.13
2018-10-06T21:34:11.469Z,8.90
2018-10-06T21:36:47.247Z,8.00
2018-10-06T21:39:25.688Z,9.20
2018-10-06T21:42:01.424Z,7.87
2018-10-06T21:44:40.587Z,9.37
2018-10-06T21:49:56.378Z,8.53
2018-10-06T21:52:35.777Z,9.50
2018-10-06T21:55:14.602Z,9.07
2018-10-06T21:57:50.639Z,10.27
2018-10-06T22:00:26.745Z,7.53
2018-10-06T22:03:05.119Z,8.60
2018-10-06T22:05:40.249Z,10.40
2018-10-06T22:08:20.710Z,8.07
2018-10-06T22:10:56.705Z,7.90
2018-10-06T22:16:11.258Z,8.50
2018-10-06T22:23:59.004Z,8.13
2018-10-06T22:29:13.925Z,7.73
2018-10-06T22:31:53.110Z,8.87
2018-10-06T22:37:07.460Z,8.30
2018-10-06T22:42:22.829Z,9.50
2018-10-06T22:45:01.660Z,9.03
2018-10-06T22:47:37.577Z,10.17
2018-10-06T22:52:50.758Z,8.17
2018-10-06T22:55:26.815Z,9.17
2018-10-06T23:03:14.806Z,8.80
2018-10-06T23:08:28.058Z,9.80
2018-10-06T23:11:08.183Z,8.43
2018-10-06T23:13:46.874Z,8.63
2018-10-06T23:16:24.701Z,9.73
2018-10-06T23:19:03.601Z,12.27
2018-10-06T23:21:43.540Z,8.50
2018-10-06T23:24:19.159Z,8.80
2018-10-06T23:29:34.352Z,8.83
2018-10-06T23:32:14.949Z,8.73
2018-10-06T23:34:50.327Z,9.10
2018-10-06T23:37:33.365Z,8.63
2018-10-06T23:40:12.097Z,8.50
2018-10-06T23:42:47.469Z,10.03
2018-10-06T23:45:24.243Z,9.33
2018-10-06T23:47:59.975Z,9.27
2018-10-06T23:50:36.221Z,8.60
2018-10-06T23:53:15.178Z,10.93
2018-10-06T23:55:51.072Z,8.90
2018-10-06T23:58:27.668Z,8.37
